Time;durP1;ratioP1;P1;durP2;ratioP2;P2;SDS_P1;SDS_P2;PMS_P1;PMS_P2;Temp;Humidity;BMP_temperature;BMP_pressure;BME280_temperature;BME280_humidity;BME280_pressure;Samples;Min_cycle;Max_cycle;Signal;HPM_P1;HPM_P2
2023/08/07 00:00:09;;;;;;;0.35;0.03;;;;;;;13.88;100.00;101261.56;5005064;28;20626;-59
2023/08/07 00:02:34;;;;;;;0.30;0.10;;;;;;;13.87;100.00;101262.59;5011204;28;20055;-53
2023/08/07 00:05:00;;;;;;;1.20;0.35;;;;;;;13.79;100.00;101260.91;5020216;28;20026;-56
2023/08/07 00:07:25;;;;;;;0.57;0.10;;;;;;;13.76;100.00;101258.63;5018804;28;20112;-56
2023/08/07 00:09:51;;;;;;;0.30;0.03;;;;;;;13.71;100.00;101259.19;5015941;28;20030;-58
2023/08/07 00:12:16;;;;;;;0.50;0.10;;;;;;;13.68;100.00;101262.25;5022081;28;20052;-58
2023/08/07 00:14:41;;;;;;;0.20;0.00;;;;;;;13.60;100.00;101270.38;5020023;28;20063;-55
2023/08/07 00:17:08;;;;;;;0.73;0.00;;;;;;;13.56;100.00;101268.31;5024982;28;20029;-57
2023/08/07 00:19:33;;;;;;;0.40;0.25;;;;;;;13.49;100.00;101273.56;5014981;28;20033;-56
2023/08/07 00:21:59;;;;;;;0.60;0.00;;;;;;;13.51;100.00;101266.19;5019676;28;20056;-58
2023/08/07 00:24:24;;;;;;;0.30;0.15;;;;;;;13.52;100.00;101266.00;5012603;28;20302;-59
2023/08/07 00:26:49;;;;;;;0.90;0.45;;;;;;;13.46;100.00;101266.75;5021215;28;20131;-56
2023/08/07 00:29:15;;;;;;;1.67;0.30;;;;;;;13.44;100.00;101266.13;5018279;28;20036;-59
2023/08/07 00:31:40;;;;;;;1.35;0.20;;;;;;;13.36;100.00;101262.78;5020310;28;20478;-57
2023/08/07 00:34:05;;;;;;;0.32;0.20;;;;;;;13.36;100.00;101268.09;5021435;28;20044;-58
2023/08/07 00:36:34;;;;;;;2.60;0.90;;;;;;;13.35;100.00;101261.13;5024141;28;20044;-58
2023/08/07 00:38:59;;;;;;;1.27;0.30;;;;;;;13.33;100.00;101260.50;5014661;28;20025;-59
2023/08/07 00:41:25;;;;;;;0.30;0.10;;;;;;;13.30;100.00;101259.84;5019070;28;20041;-57
2023/08/07 00:43:50;;;;;;;0.43;0.03;;;;;;;13.27;100.00;101248.78;5020583;28;20029;-58
2023/08/07 00:46:16;;;;;;;0.52;0.00;;;;;;;13.25;100.00;101259.56;5023725;28;20506;-58
2023/08/07 00:48:41;;;;;;;0.32;0.30;;;;;;;13.25;100.00;101256.09;5020746;28;20033;-57
2023/08/07 00:51:08;;;;;;;0.00;0.00;;;;;;;13.22;100.00;101253.81;5014363;28;20064;-57
2023/08/07 00:53:37;;;;;;;0.03;0.03;;;;;;;13.24;100.00;101257.94;5022373;28;20112;-56
2023/08/07 00:56:02;;;;;;;0.45;0.20;;;;;;;13.24;100.00;101255.28;5018624;28;20458;-59
2023/08/07 00:58:28;;;;;;;0.95;0.13;;;;;;;13.21;100.00;101254.81;5022430;28;20120;-59
2023/08/07 01:00:53;;;;;;;0.08;0.08;;;;;;;13.24;100.00;101259.75;5019755;28;20219;-59
2023/08/07 01:03:19;;;;;;;0.28;0.20;;;;;;;13.22;100.00;101257.28;5016160;28;20056;-59
2023/08/07 01:05:44;;;;;;;3.67;0.32;;;;;;;13.18;100.00;101261.34;5015275;28;20120;-55
2023/08/07 01:08:10;;;;;;;0.30;0.20;;;;;;;13.17;100.00;101259.69;5012803;28;20034;-59
2023/08/07 01:11:08;;;;;;;5.25;0.43;;;;;;;13.17;100.00;101262.34;5017723;28;20033;-57
2023/08/07 01:13:48;;;;;;;0.38;0.20;;;;;;;13.16;100.00;101273.19;5016434;28;20041;-57
2023/08/07 01:16:21;;;;;;;0.10;0.10;;;;;;;13.14;100.00;101260.06;5017726;28;20037;-56
2023/08/07 01:18:48;;;;;;;0.00;0.00;;;;;;;13.13;100.00;101261.06;5024131;28;20044;-57
2023/08/07 01:21:18;;;;;;;0.05;0.00;;;;;;;13.15;100.00;101261.72;5020355;28;20128;-57
2023/08/07 01:23:47;;;;;;;1.95;0.08;;;;;;;13.06;100.00;101257.50;5022295;28;20029;-59
2023/08/07 01:26:14;;;;;;;7.53;0.50;;;;;;;13.07;100.00;101261.84;5017707;28;20125;-60
2023/08/07 01:29:17;;;;;;;0.55;0.10;;;;;;;13.03;100.00;101256.03;5018356;28;20103;-57
2023/08/07 01:31:46;;;;;;;0.38;0.25;;;;;;;13.06;100.00;101252.19;5011425;28;20041;-57
2023/08/07 01:34:17;;;;;;;1.02;0.50;;;;;;;13.05;100.00;101248.69;5015842;28;20036;-58
2023/08/07 01:36:44;;;;;;;1.08;0.35;;;;;;;13.17;100.00;101256.22;5016097;28;20033;-57
2023/08/07 01:39:10;;;;;;;0.63;0.32;;;;;;;13.18;100.00;101249.88;5020652;28;20026;-56
2023/08/07 01:41:35;;;;;;;0.38;0.13;;;;;;;13.13;100.00;101241.63;5021042;28;20026;-57
2023/08/07 01:44:01;;;;;;;4.18;0.55;;;;;;;13.17;100.00;101242.91;5019232;28;20288;-58
2023/08/07 01:46:26;;;;;;;0.30;0.30;;;;;;;13.16;100.00;101241.22;5013726;28;20522;-59
2023/08/07 01:48:52;;;;;;;0.25;0.20;;;;;;;13.18;100.00;101248.03;5018523;28;20376;-58
2023/08/07 01:51:17;;;;;;;3.10;0.20;;;;;;;13.11;100.00;101249.78;5020838;28;20474;-58
2023/08/07 01:53:42;;;;;;;0.10;0.10;;;;;;;13.06;100.00;101241.53;5018435;28;20034;-56
2023/08/07 01:56:08;;;;;;;0.10;0.10;;;;;;;13.05;100.00;101239.91;5009805;28;20037;-56
2023/08/07 01:58:33;;;;;;;1.48;0.10;;;;;;;13.03;100.00;101241.91;5018107;28;20044;-58
2023/08/07 02:00:58;;;;;;;0.00;0.00;;;;;;;12.98;100.00;101245.13;5016311;28;20450;-59
2023/08/07 02:03:24;;;;;;;0.20;0.00;;;;;;;12.99;100.00;101244.16;5020229;28;20037;-59
2023/08/07 02:05:49;;;;;;;1.08;0.40;;;;;;;12.95;100.00;101244.69;5017175;28;20033;-58
2023/08/07 02:08:14;;;;;;;0.73;0.10;;;;;;;12.87;100.00;101245.63;5020399;28;20033;-57
2023/08/07 02:10:40;;;;;;;0.50;0.40;;;;;;;12.78;100.00;101247.59;5019641;28;20483;-59
2023/08/07 02:13:05;;;;;;;1.25;0.00;;;;;;;12.71;100.00;101257.31;5019143;28;20065;-57
2023/08/07 02:15:30;;;;;;;1.00;0.10;;;;;;;12.75;100.00;101247.97;5018145;28;20125;-57
2023/08/07 02:17:56;;;;;;;0.10;0.00;;;;;;;12.63;100.00;101252.13;5020804;28;20043;-57
2023/08/07 02:20:21;;;;;;;0.22;0.22;;;;;;;12.66;100.00;101252.56;5020241;28;20664;-59
2023/08/07 02:22:46;;;;;;;0.47;0.47;;;;;;;12.70;100.00;101253.03;5009458;28;20042;-59
2023/08/07 02:25:12;;;;;;;0.40;0.00;;;;;;;12.63;100.00;101242.28;5018853;28;20034;-56
2023/08/07 02:27:37;;;;;;;0.03;0.03;;;;;;;12.53;100.00;101244.41;5019400;28;20368;-57
2023/08/07 02:30:03;;;;;;;0.70;0.10;;;;;;;12.50;100.00;101242.13;5018468;28;20049;-59
2023/08/07 02:32:29;;;;;;;0.98;0.15;;;;;;;12.52;100.00;101239.28;5002849;28;20486;-57
2023/08/07 02:34:55;;;;;;;1.38;0.00;;;;;;;12.46;100.00;101240.84;5017244;28;20045;-58
2023/08/07 02:37:20;;;;;;;0.98;0.70;;;;;;;12.31;100.00;101238.19;5019043;28;20125;-58
2023/08/07 02:39:46;;;;;;;0.20;0.20;;;;;;;12.35;100.00;101231.50;5019234;28;20112;-58
2023/08/07 02:42:11;;;;;;;0.65;0.00;;;;;;;12.34;100.00;101237.84;5017856;28;20029;-58
2023/08/07 02:44:36;;;;;;;0.10;0.10;;;;;;;12.32;100.00;101234.53;5016682;28;20021;-55
2023/08/07 02:47:02;;;;;;;1.65;0.20;;;;;;;12.31;100.00;101235.53;5019060;28;20069;-58
2023/08/07 02:49:27;;;;;;;2.42;0.50;;;;;;;12.27;100.00;101236.09;5014294;28;20083;-58
2023/08/07 02:51:53;;;;;;;0.50;0.10;;;;;;;12.24;100.00;101237.28;5012038;28;20029;-59
2023/08/07 02:54:18;;;;;;;0.22;0.22;;;;;;;12.27;100.00;101236.91;5016247;28;20029;-56
2023/08/07 02:56:43;;;;;;;0.17;0.17;;;;;;;12.21;100.00;101235.00;5019583;28;20053;-57
2023/08/07 02:59:09;;;;;;;0.30;0.15;;;;;;;12.20;100.00;101233.34;5018859;28;20040;-57
2023/08/07 03:01:34;;;;;;;0.00;0.00;;;;;;;12.08;100.00;101227.66;5020782;28;20065;-58
2023/08/07 03:03:59;;;;;;;0.63;0.25;;;;;;;12.04;100.00;101226.38;5018074;28;20045;-57
2023/08/07 03:06:24;;;;;;;0.13;0.10;;;;;;;12.11;100.00;101226.47;5015233;28;20034;-56
2023/08/07 03:08:50;;;;;;;0.10;0.03;;;;;;;12.08;100.00;101232.97;5019474;28;20060;-57
2023/08/07 03:11:15;;;;;;;0.80;0.10;;;;;;;12.03;100.00;101230.03;5019933;28;20378;-59
2023/08/07 03:13:42;;;;;;;0.85;0.10;;;;;;;12.08;100.00;101226.81;5018565;28;20112;-57
2023/08/07 03:16:08;;;;;;;1.08;0.35;;;;;;;12.12;100.00;101228.94;5015064;28;20026;-58
2023/08/07 03:18:33;;;;;;;2.63;0.20;;;;;;;12.12;100.00;101228.09;5016735;28;20044;-54
2023/08/07 03:20:59;;;;;;;0.28;0.10;;;;;;;12.14;100.00;101239.38;5014250;28;20025;-54
2023/08/07 03:23:25;;;;;;;0.65;0.00;;;;;;;12.15;100.00;101233.06;5019944;28;20037;-55
2023/08/07 03:25:51;;;;;;;1.33;0.13;;;;;;;12.16;100.00;101237.38;5011120;28;20064;-58
2023/08/07 03:28:17;;;;;;;0.50;0.50;;;;;;;12.12;100.00;101236.91;5011202;28;20033;-57
2023/08/07 03:30:44;;;;;;;1.00;0.30;;;;;;;12.16;100.00;101242.69;5012536;28;20025;-57
2023/08/07 03:33:10;;;;;;;0.20;0.10;;;;;;;12.19;100.00;101235.16;5013449;28;20534;-56
2023/08/07 03:35:35;;;;;;;1.17;0.10;;;;;;;12.20;100.00;101241.31;5018419;28;20045;-57
2023/08/07 03:38:00;;;;;;;0.75;0.40;;;;;;;12.23;100.00;101236.44;5015602;28;20107;-54
2023/08/07 03:40:26;;;;;;;0.88;0.65;;;;;;;12.26;100.00;101237.09;5022835;28;20865;-57
2023/08/07 03:42:51;;;;;;;0.17;0.00;;;;;;;12.30;100.00;101236.53;5018157;28;20040;-58
2023/08/07 03:45:16;;;;;;;0.40;0.10;;;;;;;12.23;100.00;101233.78;5011492;28;20029;-57
2023/08/07 03:47:41;;;;;;;3.28;0.35;;;;;;;12.29;100.00;101239.38;5016227;28;20033;-56
2023/08/07 03:50:07;;;;;;;0.10;0.00;;;;;;;12.24;100.00;101237.28;5016514;28;20061;-55
2023/08/07 03:52:32;;;;;;;0.38;0.10;;;;;;;12.27;100.00;101231.59;5011897;28;20390;-57
2023/08/07 03:54:58;;;;;;;9.30;1.38;;;;;;;12.25;100.00;101236.25;5014334;28;20257;-59
2023/08/07 03:57:23;;;;;;;0.20;0.10;;;;;;;12.27;100.00;101236.91;5015433;28;20048;-58
2023/08/07 03:59:48;;;;;;;0.15;0.00;;;;;;;12.22;100.00;101232.13;5020389;28;20459;-56
2023/08/07 04:02:14;;;;;;;0.10;0.00;;;;;;;12.15;100.00;101241.03;5013428;28;20060;-55
2023/08/07 04:04:39;;;;;;;0.03;0.00;;;;;;;12.11;100.00;101237.09;5015456;28;20576;-57
2023/08/07 04:07:04;;;;;;;0.28;0.10;;;;;;;12.05;100.00;101232.50;5015039;28;20129;-58
2023/08/07 04:09:30;;;;;;;0.85;0.10;;;;;;;12.04;100.00;101237.00;5016170;28;20030;-57
2023/08/07 04:11:55;;;;;;;0.95;0.10;;;;;;;11.95;100.00;101232.75;5011844;28;20966;-59
2023/08/07 04:14:20;;;;;;;0.35;0.30;;;;;;;11.22;100.00;101248.28;5014601;28;20171;-57
2023/08/07 04:16:46;;;;;;;0.00;0.00;;;;;;;11.70;100.00;101234.81;5013318;28;20079;-52
2023/08/07 04:19:11;;;;;;;0.30;0.20;;;;;;;11.79;100.00;101249.66;5014099;28;20447;-59
2023/08/07 04:21:36;;;;;;;0.30;0.17;;;;;;;11.75;100.00;101237.75;5016911;28;20490;-57
2023/08/07 04:24:10;;;;;;;0.15;0.00;;;;;;;11.68;100.00;101237.63;5019437;28;20048;-55
2023/08/07 04:26:38;;;;;;;0.40;0.00;;;;;;;11.62;100.00;101242.84;5010599;28;20038;-58
2023/08/07 04:29:04;;;;;;;9.23;1.27;;;;;;;11.65;100.00;101234.53;5016224;28;20029;-56
2023/08/07 04:31:32;;;;;;;0.10;0.00;;;;;;;11.63;100.00;101240.00;5013136;28;20083;-57
2023/08/07 04:33:58;;;;;;;0.43;0.10;;;;;;;11.60;100.00;101242.19;5011768;28;20209;-55
2023/08/07 04:36:23;;;;;;;0.20;0.10;;;;;;;11.67;100.00;101245.78;5017571;28;20388;-57
2023/08/07 04:38:50;;;;;;;0.30;0.08;;;;;;;11.64;100.00;101249.63;5009254;28;20080;-55
2023/08/07 04:41:15;;;;;;;2.78;0.30;;;;;;;11.54;100.00;101249.88;5011403;28;20052;-57
2023/08/07 04:43:42;;;;;;;2.17;0.10;;;;;;;11.42;100.00;101248.63;5012348;28;20099;-57
2023/08/07 04:46:09;;;;;;;0.77;0.35;;;;;;;11.38;100.00;101252.63;5013063;28;20030;-57
2023/08/07 04:48:35;;;;;;;2.05;0.15;;;;;;;11.45;100.00;101252.78;5013145;28;20041;-57
2023/08/07 04:51:00;;;;;;;1.00;0.85;;;;;;;11.49;100.00;101256.75;5021012;28;20033;-57
2023/08/07 04:53:25;;;;;;;0.10;0.10;;;;;;;11.46;100.00;101262.38;5015357;28;20391;-58
2023/08/07 04:55:51;;;;;;;0.20;0.20;;;;;;;11.54;100.00;101268.47;5016383;28;20026;-58
2023/08/07 04:58:16;;;;;;;0.00;0.00;;;;;;;11.51;100.00;101263.53;5018105;28;20030;-56
2023/08/07 05:00:41;;;;;;;0.30;0.03;;;;;;;11.29;100.00;101269.66;5020645;28;20052;-58
2023/08/07 05:03:07;;;;;;;0.75;0.75;;;;;;;11.05;100.00;101267.97;5021371;28;20409;-59
2023/08/07 05:05:32;;;;;;;5.88;0.10;;;;;;;11.58;100.00;101261.78;5019637;28;20025;-56
2023/08/07 05:07:59;;;;;;;1.52;0.20;;;;;;;11.61;100.00;101262.44;5011111;28;20361;-57
2023/08/07 05:10:25;;;;;;;0.08;0.08;;;;;;;11.57;100.00;101262.78;5019973;28;20308;-59
2023/08/07 05:12:55;;;;;;;1.25;0.63;;;;;;;11.46;100.00;101268.53;5018235;28;20260;-60
2023/08/07 05:15:22;;;;;;;0.43;0.10;;;;;;;11.44;100.00;101265.22;5018235;28;20029;-59
2023/08/07 05:17:48;;;;;;;0.00;0.00;;;;;;;11.46;100.00;101265.03;5016612;28;20038;-56
2023/08/07 05:20:13;;;;;;;2.28;0.40;;;;;;;11.57;100.00;101262.78;5020460;28;20037;-57
2023/08/07 05:22:38;;;;;;;1.85;0.10;;;;;;;11.52;100.00;101264.34;5013384;28;20171;-57
2023/08/07 05:25:04;;;;;;;0.13;0.00;;;;;;;11.51;100.00;101268.84;5014145;28;20033;-58
2023/08/07 05:27:29;;;;;;;2.92;0.05;;;;;;;11.46;100.00;101265.88;5019294;28;20048;-57
2023/08/07 05:29:55;;;;;;;0.22;0.22;;;;;;;11.39;100.00;101262.28;5019793;28;20029;-59
2023/08/07 05:32:20;;;;;;;0.13;0.10;;;;;;;11.34;100.00;101262.81;5015061;28;20033;-56
2023/08/07 05:34:45;;;;;;;1.90;0.10;;;;;;;11.58;100.00;101271.59;5018784;28;20124;-59
2023/08/07 05:37:10;;;;;;;1.48;0.22;;;;;;;11.50;100.00;101267.16;5020147;28;20029;-57
2023/08/07 05:39:36;;;;;;;0.35;0.10;;;;;;;11.49;100.00;101273.50;5019465;28;20052;-57
2023/08/07 05:42:01;;;;;;;1.30;1.05;;;;;;;11.51;100.00;101275.94;5021670;28;20445;-59
2023/08/07 05:44:27;;;;;;;1.55;0.28;;;;;;;11.49;100.00;101276.16;5012260;28;20033;-59
2023/08/07 05:46:52;;;;;;;0.47;0.10;;;;;;;11.47;100.00;101277.31;5014802;28;20108;-59
2023/08/07 05:49:19;;;;;;;0.38;0.13;;;;;;;11.55;100.00;101277.25;5023428;28;20025;-57
2023/08/07 05:51:45;;;;;;;3.30;0.08;;;;;;;11.67;100.00;101282.97;5011708;28;20096;-59
2023/08/07 05:54:10;;;;;;;1.00;0.10;;;;;;;11.70;100.00;101278.13;5002713;28;20037;-58
2023/08/07 05:56:38;;;;;;;1.90;0.10;;;;;;;11.79;100.00;101278.88;5003659;28;20033;-59
2023/08/07 05:59:03;;;;;;;2.47;0.55;;;;;;;11.83;100.00;101284.69;5002561;28;20518;-57
2023/08/07 06:01:31;;;;;;;0.73;0.13;;;;;;;11.86;100.00;101286.97;5001086;28;20045;-60
2023/08/07 06:03:57;;;;;;;0.50;0.20;;;;;;;12.32;100.00;101285.06;5004439;28;20496;-59
2023/08/07 06:06:25;;;;;;;1.20;0.20;;;;;;;12.36;100.00;101288.97;5006647;28;20026;-59
2023/08/07 06:08:50;;;;;;;1.95;0.30;;;;;;;12.31;100.00;101291.34;5005301;28;20044;-58
2023/08/07 06:11:15;;;;;;;1.27;0.38;;;;;;;12.12;100.00;101300.69;5003154;28;20107;-58
2023/08/07 06:13:41;;;;;;;0.30;0.30;;;;;;;12.78;100.00;101287.50;5000976;28;20089;-60
2023/08/07 06:16:06;;;;;;;2.80;1.02;;;;;;;12.79;100.00;101294.47;5003883;28;20038;-58
2023/08/07 06:18:33;;;;;;;0.30;0.30;;;;;;;13.04;100.00;101286.19;5001072;28;20033;-58
2023/08/07 06:20:59;;;;;;;0.50;0.40;;;;;;;13.18;100.00;101293.28;5005978;28;21598;-55
2023/08/07 06:23:24;;;;;;;4.07;0.52;;;;;;;13.28;100.00;101287.69;5002970;28;20113;-58
2023/08/07 06:25:50;;;;;;;1.75;0.20;;;;;;;13.31;100.00;101288.13;4999917;28;20800;-58
2023/08/07 06:28:15;;;;;;;1.10;0.35;;;;;;;13.46;100.00;101290.75;5004834;28;20030;-57
2023/08/07 06:30:40;;;;;;;0.95;0.60;;;;;;;13.61;100.00;101298.69;5003538;28;20025;-54
2023/08/07 06:33:06;;;;;;;3.40;0.77;;;;;;;13.71;100.00;101290.38;5005048;28;20446;-55
2023/08/07 06:35:37;;;;;;;0.55;0.50;;;;;;;13.81;100.00;101293.53;5011276;28;20037;-59
2023/08/07 06:38:02;;;;;;;2.53;0.65;;;;;;;13.96;100.00;101286.28;5004081;28;20037;-60
2023/08/07 06:40:28;;;;;;;0.65;0.22;;;;;;;13.97;100.00;101284.41;5007237;28;20057;-58
2023/08/07 06:42:54;;;;;;;1.05;0.20;;;;;;;14.29;100.00;101287.50;5006129;28;20037;-58
2023/08/07 06:45:19;;;;;;;2.95;0.40;;;;;;;14.51;100.00;101290.94;5003720;28;20442;-60
2023/08/07 06:47:44;;;;;;;1.67;0.40;;;;;;;14.70;100.00;101292.06;5006321;28;20057;-62
2023/08/07 06:50:10;;;;;;;1.45;0.30;;;;;;;14.96;100.00;101289.50;5005828;28;20026;-60
2023/08/07 06:52:35;;;;;;;0.55;0.15;;;;;;;15.11;100.00;101288.53;5002425;28;20121;-61
2023/08/07 06:55:01;;;;;;;1.27;0.82;;;;;;;15.34;100.00;101280.97;5007761;28;20053;-58
2023/08/07 06:57:27;;;;;;;0.85;0.85;;;;;;;15.54;100.00;101282.84;5011866;28;20113;-58
2023/08/07 06:59:52;;;;;;;0.65;0.00;;;;;;;15.55;100.00;101277.31;5000863;28;20052;-57
2023/08/07 07:02:17;;;;;;;1.10;0.22;;;;;;;15.60;100.00;101282.03;4999018;28;20041;-59
2023/08/07 07:04:43;;;;;;;1.85;0.22;;;;;;;15.69;100.00;101283.50;5006683;28;20037;-59
2023/08/07 07:07:08;;;;;;;2.65;0.20;;;;;;;15.87;100.00;101274.88;5004530;28;20636;-58
2023/08/07 07:09:33;;;;;;;0.17;0.03;;;;;;;15.98;100.00;101273.41;5006771;28;20030;-59
2023/08/07 07:11:59;;;;;;;2.72;0.50;;;;;;;16.18;100.00;101263.50;5000596;28;20087;-58
2023/08/07 07:14:24;;;;;;;0.03;0.03;;;;;;;15.61;100.00;101279.16;5003378;28;20044;-59
2023/08/07 07:16:50;;;;;;;0.32;0.32;;;;;;;16.04;100.00;101272.59;5003507;28;20620;-63
2023/08/07 07:19:16;;;;;;;1.38;0.73;;;;;;;16.55;100.00;101261.97;5006100;28;20034;-57
2023/08/07 07:21:41;;;;;;;0.80;0.10;;;;;;;16.97;100.00;101272.34;4998814;28;20041;-58
2023/08/07 07:24:07;;;;;;;0.80;0.10;;;;;;;17.20;100.00;101264.56;5002207;28;20491;-59
2023/08/07 07:26:32;;;;;;;0.10;0.10;;;;;;;17.42;100.00;101254.34;5007148;28;20030;-61
2023/08/07 07:28:57;;;;;;;1.95;0.17;;;;;;;17.54;100.00;101257.13;5007028;28;20029;-61
2023/08/07 07:31:23;;;;;;;3.35;0.52;;;;;;;17.73;100.00;101255.31;5002606;28;21566;-62
2023/08/07 07:33:48;;;;;;;0.20;0.20;;;;;;;17.76;100.00;101254.88;5007886;28;20513;-61
2023/08/07 07:36:16;;;;;;;1.40;0.00;;;;;;;17.92;100.00;101242.00;5001056;28;20088;-57
2023/08/07 07:38:41;;;;;;;0.82;0.40;;;;;;;17.95;100.00;101246.91;5006224;28;20061;-62
2023/08/07 07:41:10;;;;;;;5.18;0.93;;;;;;;18.01;100.00;101257.56;5004051;28;20068;-62
2023/08/07 07:43:35;;;;;;;0.22;0.05;;;;;;;18.03;100.00;101254.66;5007370;28;20060;-63
2023/08/07 07:46:01;;;;;;;2.67;0.08;;;;;;;17.97;100.00;101250.19;5002611;28;20483;-62
2023/08/07 07:48:26;;;;;;;1.27;0.10;;;;;;;18.09;100.00;101254.59;5001401;28;20485;-62
2023/08/07 07:50:53;;;;;;;0.73;0.05;;;;;;;18.21;100.00;101262.72;5007991;28;21199;-61
2023/08/07 07:53:18;;;;;;;0.22;0.00;;;;;;;18.22;100.00;101258.19;5005369;28;20048;-61
2023/08/07 07:55:47;;;;;;;0.52;0.00;;;;;;;18.20;100.00;101261.09;4996407;28;20034;-62
2023/08/07 07:58:13;;;;;;;0.35;0.35;;;;;;;18.36;100.00;101258.88;5003319;28;20047;-62
2023/08/07 08:00:38;;;;;;;0.10;0.00;;;;;;;18.33;100.00;101251.25;5004515;28;20037;-61
2023/08/07 08:03:04;;;;;;;0.57;0.05;;;;;;;18.39;100.00;101251.19;5000334;28;20053;-63
2023/08/07 08:05:29;;;;;;;0.40;0.10;;;;;;;18.51;100.00;101257.44;4999596;28;20096;-63
2023/08/07 08:07:55;;;;;;;1.08;0.00;;;;;;;18.72;100.00;101263.41;4996355;28;20545;-62
2023/08/07 08:10:20;;;;;;;0.10;0.00;;;;;;;18.81;100.00;101262.06;5000793;28;20418;-62
2023/08/07 08:12:45;;;;;;;0.80;0.00;;;;;;;19.07;100.00;101266.25;4999970;28;20378;-62
2023/08/07 08:15:11;;;;;;;0.35;0.10;;;;;;;19.21;100.00;101261.53;4992746;28;20117;-58
2023/08/07 08:17:36;;;;;;;0.20;0.00;;;;;;;19.29;100.00;101255.81;4999897;28;20034;-63
2023/08/07 08:20:01;;;;;;;1.58;0.20;;;;;;;19.32;100.00;101260.72;4999470;28;21002;-64
2023/08/07 08:22:27;;;;;;;0.10;0.00;;;;;;;19.47;100.00;101254.09;4997169;28;20487;-62
2023/08/07 08:24:52;;;;;;;0.90;0.00;;;;;;;19.67;100.00;101260.00;5004727;28;20043;-64
2023/08/07 08:27:17;;;;;;;2.83;0.57;;;;;;;19.74;100.00;101271.47;5000238;28;20033;-65
2023/08/07 08:29:43;;;;;;;0.52;0.00;;;;;;;19.81;100.00;101260.59;5003638;28;20437;-61
2023/08/07 08:32:09;;;;;;;0.47;0.17;;;;;;;19.60;100.00;101260.06;5007078;28;20033;-65
2023/08/07 08:34:34;;;;;;;0.40;0.00;;;;;;;19.53;100.00;101247.78;5010399;28;20035;-58
2023/08/07 08:36:59;;;;;;;2.28;0.08;;;;;;;19.82;100.00;101268.41;5007811;28;20040;-66
2023/08/07 08:39:25;;;;;;;0.40;0.00;;;;;;;19.89;100.00;101262.13;5002707;28;20057;-63
2023/08/07 08:41:50;;;;;;;0.30;0.00;;;;;;;20.05;100.00;101256.84;5006791;28;20207;-64
2023/08/07 08:44:19;;;;;;;1.38;0.00;;;;;;;20.08;100.00;101246.66;5011070;28;20045;-64
2023/08/07 08:46:48;;;;;;;0.00;0.00;;;;;;;20.10;100.00;101242.69;5003844;28;20871;-62
2023/08/07 08:49:20;;;;;;;0.00;0.00;;;;;;;20.47;100.00;101247.75;5004704;28;20038;-62
2023/08/07 08:51:46;;;;;;;8.98;0.00;;;;;;;20.54;100.00;101250.31;5005191;28;20033;-64
2023/08/07 08:54:13;;;;;;;0.80;0.20;;;;;;;20.50;100.00;101258.06;5005915;28;20034;-65
2023/08/07 08:56:39;;;;;;;0.60;0.00;;;;;;;20.49;100.00;101251.03;5006371;28;20041;-56
2023/08/07 08:59:04;;;;;;;1.60;0.65;;;;;;;20.64;100.00;101250.56;5011277;28;20159;-62
2023/08/07 09:01:30;;;;;;;0.00;0.00;;;;;;;20.86;100.00;101250.72;5004455;28;20513;-64
2023/08/07 09:03:56;;;;;;;0.20;0.00;;;;;;;20.98;100.00;101253.38;5007022;28;20639;-65
2023/08/07 09:06:22;;;;;;;0.65;0.00;;;;;;;21.06;100.00;101258.34;5007391;28;20025;-62
2023/08/07 09:08:49;;;;;;;0.52;0.00;;;;;;;20.98;100.00;101258.75;5009130;28;20039;-63
2023/08/07 09:11:16;;;;;;;1.00;0.00;;;;;;;21.25;100.00;101261.69;5006612;28;20037;-63
2023/08/07 09:13:44;;;;;;;0.88;0.15;;;;;;;21.35;100.00;101261.84;5002958;28;20116;-65
2023/08/07 09:16:11;;;;;;;2.60;0.10;;;;;;;21.13;100.00;101264.44;5011257;28;20048;-64
2023/08/07 09:18:37;;;;;;;0.40;0.35;;;;;;;21.17;100.00;101262.06;5006880;28;20545;-63
2023/08/07 09:21:02;;;;;;;1.35;0.30;;;;;;;21.20;100.00;101266.97;5011835;28;20040;-64
2023/08/07 09:23:28;;;;;;;0.03;0.00;;;;;;;21.31;100.00;101263.41;5008553;28;20036;-65
2023/08/07 09:26:04;;;;;;;0.47;0.00;;;;;;;21.36;100.00;101260.78;5009142;28;20458;-63
2023/08/07 09:28:31;;;;;;;0.28;0.28;;;;;;;21.73;100.00;101252.22;5005637;28;20126;-63
2023/08/07 09:30:56;;;;;;;0.32;0.00;;;;;;;21.72;100.00;101247.91;5007750;28;20549;-63
2023/08/07 09:33:26;;;;;;;1.00;0.00;;;;;;;21.78;100.00;101255.00;5008421;28;20071;-64
2023/08/07 09:35:52;;;;;;;1.25;0.00;;;;;;;21.68;100.00;101250.25;5008740;28;20029;-49
2023/08/07 09:38:17;;;;;;;0.40;0.00;;;;;;;22.18;100.00;101251.25;5010436;28;20021;-49
2023/08/07 09:40:43;;;;;;;0.85;0.10;;;;;;;22.17;100.00;101255.00;4998284;28;20586;-63
2023/08/07 09:43:08;;;;;;;0.73;0.00;;;;;;;21.96;100.00;101251.22;5006876;28;21039;-54
2023/08/07 09:45:36;;;;;;;3.92;0.10;;;;;;;22.14;100.00;101244.72;5003512;28;20029;-58
2023/08/07 09:48:03;;;;;;;0.17;0.03;;;;;;;22.49;100.00;101247.09;5009196;28;20514;-61
2023/08/07 09:50:30;;;;;;;0.55;0.00;;;;;;;22.65;100.00;101245.38;5001498;28;20395;-62
2023/08/07 09:52:56;;;;;;;2.80;0.10;;;;;;;22.32;100.00;101249.03;4996013;28;20040;-60
2023/08/07 09:55:22;;;;;;;0.22;0.10;;;;;;;22.49;100.00;101249.00;5006492;28;20037;-61
2023/08/07 09:57:48;;;;;;;1.88;0.10;;;;;;;22.95;100.00;101238.66;5006977;28;20076;-60
2023/08/07 10:00:15;;;;;;;2.58;0.10;;;;;;;23.23;100.00;101232.19;5009753;28;20033;-60
2023/08/07 10:02:42;;;;;;;2.58;0.08;;;;;;;23.00;100.00;101238.75;5000586;28;20056;-60
2023/08/07 10:05:12;;;;;;;0.90;0.00;;;;;;;22.96;100.00;101233.00;5007636;28;20048;-60
2023/08/07 10:07:38;;;;;;;2.57;0.13;;;;;;;23.06;100.00;101229.63;5012327;28;20513;-61
2023/08/07 10:10:05;;;;;;;4.95;0.10;;;;;;;22.90;100.00;101214.28;5004653;28;20441;-60
2023/08/07 10:12:31;;;;;;;0.10;0.00;;;;;;;22.88;100.00;101217.25;5011245;28;20407;-62
2023/08/07 10:14:58;;;;;;;0.55;0.00;;;;;;;22.77;100.00;101219.03;5003446;28;20041;-62
2023/08/07 10:17:24;;;;;;;0.00;0.00;;;;;;;23.03;100.00;101219.31;5011487;28;20870;-61
2023/08/07 10:19:51;;;;;;;5.13;0.45;;;;;;;23.47;99.10;101205.63;5006368;28;20482;-60
2023/08/07 10:22:18;;;;;;;1.20;0.00;;;;;;;23.50;97.94;101196.97;5009570;28;20034;-60
2023/08/07 10:24:48;;;;;;;0.00;0.00;;;;;;;23.62;99.34;101208.44;5009666;28;20038;-59
2023/08/07 10:27:18;;;;;;;0.43;0.43;;;;;;;23.68;97.92;101209.28;5005292;28;20116;-59
2023/08/07 10:29:47;;;;;;;1.27;0.20;;;;;;;23.54;94.57;101198.06;4997018;28;20025;-58
2023/08/07 10:32:17;;;;;;;0.15;0.10;;;;;;;23.45;94.39;101205.06;5009232;28;20048;-60
2023/08/07 10:34:47;;;;;;;2.75;0.10;;;;;;;23.33;95.95;101204.41;5006447;28;20155;-59
2023/08/07 10:37:42;;;;;;;1.85;0.35;;;;;;;23.22;92.87;101220.56;5010591;28;20040;-60
2023/08/07 10:40:09;;;;;;;0.85;0.00;;;;;;;22.71;95.65;101213.81;4999494;28;20029;-62
2023/08/07 10:43:11;;;;;;;0.88;0.10;;;;;;;22.80;93.94;101209.59;5007505;28;20092;-56
2023/08/07 10:45:38;;;;;;;2.05;0.00;;;;;;;22.85;97.39;101209.66;4998769;28;20280;-59
2023/08/07 10:48:09;;;;;;;0.75;0.10;;;;;;;22.70;95.99;101199.50;5006261;28;20017;-60
2023/08/07 10:50:46;;;;;;;0.93;0.20;;;;;;;22.72;96.02;101191.94;5007025;28;20029;-61
2023/08/07 10:53:19;;;;;;;0.80;0.00;;;;;;;23.21;95.50;101188.38;5004449;28;20033;-59
2023/08/07 10:55:45;;;;;;;0.80;0.17;;;;;;;23.49;93.42;101188.03;5005532;28;20398;-62
2023/08/07 10:58:30;;;;;;;0.32;0.20;;;;;;;23.63;87.85;101187.59;4998177;28;20038;-53
2023/08/07 11:01:21;;;;;;;0.38;0.00;;;;;;;23.27;89.09;101188.16;4999319;28;20033;-54
2023/08/07 11:03:54;;;;;;;0.70;0.00;;;;;;;23.50;91.10;101186.16;5001188;28;20368;-58
2023/08/07 11:06:26;;;;;;;0.10;0.00;;;;;;;23.53;89.67;101196.44;5009348;28;20437;-62
2023/08/07 11:08:52;;;;;;;1.45;0.00;;;;;;;23.14;89.30;101185.06;5002012;28;20036;-59
2023/08/07 11:11:17;;;;;;;0.30;0.10;;;;;;;23.56;87.16;101173.47;5005535;28;20059;-62
2023/08/07 11:13:42;;;;;;;0.60;0.00;;;;;;;24.10;87.30;101167.81;5003188;28;20513;-62